createdAt,value
2022-09-02T00:00:30.639Z,1012.49
2022-09-02T00:01:30.636Z,1012.46
2022-09-02T00:02:30.778Z,1012.47
2022-09-02T00:03:30.814Z,1012.50
2022-09-02T00:04:30.643Z,1012.47
2022-09-02T00:05:30.636Z,1012.46
2022-09-02T00:06:30.642Z,1012.42
2022-09-02T00:07:30.639Z,1012.45
2022-09-02T00:08:30.639Z,1012.44
2022-09-02T00:09:30.634Z,1012.38
2022-09-02T00:10:30.643Z,1012.41
2022-09-02T00:11:30.637Z,1012.38
2022-09-02T00:12:30.641Z,1012.36
2022-09-02T00:13:30.633Z,1012.41
2022-09-02T00:14:30.634Z,1012.38
2022-09-02T00:15:30.632Z,1012.40
2022-09-02T00:16:30.652Z,1012.39
2022-09-02T00:17:30.630Z,1012.34
2022-09-02T00:18:30.639Z,1012.36
2022-09-02T00:19:30.641Z,1012.39
2022-09-02T00:20:30.631Z,1012.35
2022-09-02T00:21:30.633Z,1012.34
2022-09-02T00:22:30.639Z,1012.29
2022-09-02T00:23:30.630Z,1012.30
2022-09-02T00:24:30.632Z,1012.33
2022-09-02T00:25:30.631Z,1012.34
2022-09-02T00:26:30.632Z,1012.31
2022-09-02T00:27:30.628Z,1012.34
2022-09-02T00:28:30.630Z,1012.27
2022-09-02T00:29:30.626Z,1012.28
2022-09-02T00:30:30.636Z,1012.28
2022-09-02T00:31:30.686Z,1012.30
2022-09-02T00:32:30.635Z,1012.31
2022-09-02T00:33:30.624Z,1012.25
2022-09-02T00:34:30.625Z,1012.25
2022-09-02T00:35:30.624Z,1012.27
2022-09-02T00:36:30.630Z,1012.23
2022-09-02T00:37:30.624Z,1012.25
2022-09-02T00:38:30.626Z,1012.25
2022-09-02T00:39:30.623Z,1012.23
2022-09-02T00:40:30.720Z,1012.26
2022-09-02T00:41:30.623Z,1012.21
2022-09-02T00:42:30.624Z,1012.18
2022-09-02T00:43:30.625Z,1012.19
2022-09-02T00:44:30.625Z,1012.16
2022-09-02T00:45:30.674Z,1012.18
2022-09-02T00:46:30.677Z,1012.17
2022-09-02T00:47:30.621Z,1012.21
2022-09-02T00:48:30.628Z,1012.18
2022-09-02T00:49:31.076Z,1012.18
2022-09-02T00:50:30.621Z,1012.16
2022-09-02T00:51:30.623Z,1012.23
2022-09-02T00:52:30.620Z,1012.17
2022-09-02T00:53:30.618Z,1012.19
2022-09-02T00:54:30.626Z,1012.21
2022-09-02T00:55:30.619Z,1012.18
2022-09-02T00:56:30.618Z,1012.18
2022-09-02T00:57:30.617Z,1012.14
2022-09-02T00:58:30.618Z,1012.17
2022-09-02T00:59:30.618Z,1012.19
2022-09-02T01:00:34.493Z,1012.17
2022-09-02T01:01:30.726Z,1012.15
2022-09-02T01:02:30.624Z,1012.13
2022-09-02T01:03:30.631Z,1012.12
2022-09-02T01:04:30.622Z,1012.18
2022-09-02T01:05:30.613Z,1012.13
2022-09-02T01:06:30.622Z,1012.16
2022-09-02T01:07:30.618Z,1012.16
2022-09-02T01:08:30.616Z,1012.16
2022-09-02T01:09:30.612Z,1012.17
2022-09-02T01:10:30.615Z,1012.15
2022-09-02T01:11:30.612Z,1012.17
2022-09-02T01:12:30.615Z,1012.18
2022-09-02T01:13:30.614Z,1012.17
2022-09-02T01:14:30.614Z,1012.18
2022-09-02T01:15:30.610Z,1012.15
2022-09-02T01:16:30.682Z,1012.17
2022-09-02T01:17:30.611Z,1012.16
2022-09-02T01:18:30.616Z,1012.16
2022-09-02T01:19:30.611Z,1012.19
2022-09-02T01:20:30.617Z,1012.15
2022-09-02T01:21:30.609Z,1012.15
2022-09-02T01:22:30.612Z,1012.20
2022-09-02T01:23:32.368Z,1012.23
2022-09-02T01:24:30.612Z,1012.15
2022-09-02T01:25:30.607Z,1012.20
2022-09-02T01:26:30.609Z,1012.18
2022-09-02T01:27:30.608Z,1012.20
2022-09-02T01:28:30.613Z,1012.19
2022-09-02T01:29:30.606Z,1012.19
2022-09-02T01:30:30.609Z,1012.17
2022-09-02T01:31:30.687Z,1012.16
2022-09-02T01:32:30.609Z,1012.15
2022-09-02T01:33:31.659Z,1012.12
2022-09-02T01:34:30.605Z,1012.10
2022-09-02T01:35:30.602Z,1012.12
2022-09-02T01:36:30.607Z,1012.12
2022-09-02T01:37:30.602Z,1012.13
2022-09-02T01:38:30.603Z,1012.11
2022-09-02T01:39:30.602Z,1012.13
2022-09-02T01:40:30.636Z,1012.09
2022-09-02T01:41:30.601Z,1012.09
2022-09-02T01:42:30.604Z,1012.09
2022-09-02T01:43:30.600Z,1012.11
2022-09-02T01:44:30.602Z,1012.06
2022-09-02T01:45:30.604Z,1012.06
2022-09-02T01:46:30.661Z,1012.08
2022-09-02T01:47:30.600Z,1012.02
2022-09-02T01:48:30.601Z,1012.02
2022-09-02T01:49:30.848Z,1012.01
2022-09-02T01:50:30.599Z,1012.05
2022-09-02T01:51:30.603Z,1012.01
2022-09-02T01:52:30.599Z,1011.96
2022-09-02T01:53:30.605Z,1011.95
2022-09-02T01:54:30.598Z,1012.00
2022-09-02T01:55:30.596Z,1011.96
2022-09-02T01:56:30.596Z,1011.94
2022-09-02T01:57:30.594Z,1012.01
2022-09-02T01:58:30.598Z,1012.00
2022-09-02T01:59:30.602Z,1011.98
2022-09-02T02:00:30.683Z,1011.96
2022-09-02T02:01:30.673Z,1011.99
2022-09-02T02:02:30.597Z,1012.02
2022-09-02T02:03:30.626Z,1011.99
2022-09-02T02:04:30.603Z,1012.00
2022-09-02T02:05:30.594Z,1011.97
2022-09-02T02:06:30.596Z,1011.99
2022-09-02T02:07:30.594Z,1012.00
2022-09-02T02:08:30.593Z,1012.01
2022-09-02T02:09:30.592Z,1012.01
2022-09-02T02:10:30.592Z,1011.98
2022-09-02T02:11:30.593Z,1012.01
2022-09-02T02:12:30.591Z,1012.01
2022-09-02T02:13:30.593Z,1011.97
2022-09-02T02:14:30.589Z,1011.96
2022-09-02T02:16:10.123Z,1011.98
2022-09-02T02:17:10.086Z,1011.97
2022-09-02T02:18:10.088Z,1011.95
2022-09-02T02:19:10.090Z,1011.99
2022-09-02T02:20:10.083Z,1011.99
2022-09-02T02:21:10.083Z,1011.98
2022-09-02T02:22:10.084Z,1011.98
2022-09-02T02:23:10.084Z,1011.96
2022-09-02T02:24:10.084Z,1011.99
2022-09-02T02:25:10.085Z,1011.96
2022-09-02T02:26:10.086Z,1011.98
2022-09-02T02:27:10.082Z,1012.00
2022-09-02T02:28:10.109Z,1011.96
2022-09-02T02:29:10.081Z,1011.99
2022-09-02T02:30:10.096Z,1011.95
2022-09-02T02:31:10.118Z,1011.93
2022-09-02T02:32:10.082Z,1011.93
2022-09-02T02:33:10.128Z,1011.94
2022-09-02T02:34:10.082Z,1011.90
2022-09-02T02:35:10.080Z,1011.88
2022-09-02T02:36:10.079Z,1011.96
2022-09-02T02:37:10.079Z,1011.96
2022-09-02T02:38:10.076Z,1011.94
2022-09-02T02:39:10.079Z,1011.96
2022-09-02T02:40:10.150Z,1011.97
2022-09-02T02:41:10.076Z,1011.97
2022-09-02T02:42:10.078Z,1011.97
2022-09-02T02:43:10.078Z,1011.97
2022-09-02T02:44:10.081Z,1011.95
2022-09-02T02:45:10.079Z,1012.00
2022-09-02T02:46:10.103Z,1011.99
2022-09-02T02:47:10.078Z,1011.99
2022-09-02T02:48:10.080Z,1011.96
2022-09-02T02:49:10.076Z,1011.97
2022-09-02T02:50:10.073Z,1011.99
2022-09-02T02:51:10.072Z,1011.96
2022-09-02T02:52:10.073Z,1012.01
2022-09-02T02:53:10.071Z,1011.99
2022-09-02T02:54:10.077Z,1011.95
2022-09-02T02:55:10.073Z,1011.99
2022-09-02T02:56:10.068Z,1011.97
2022-09-02T02:57:10.068Z,1011.99
2022-09-02T02:58:10.070Z,1011.94
2022-09-02T02:59:10.071Z,1011.94
2022-09-02T03:00:10.072Z,1011.95
2022-09-02T03:01:10.070Z,1011.95
2022-09-02T03:02:10.222Z,1011.90
2022-09-02T03:03:10.198Z,1011.90
2022-09-02T03:04:10.070Z,1011.91
2022-09-02T03:05:10.066Z,1011.86
2022-09-02T03:06:10.066Z,1011.87
2022-09-02T03:07:10.065Z,1011.86
2022-09-02T03:08:10.065Z,1011.88
2022-09-02T03:09:10.061Z,1011.91
2022-09-02T03:10:10.065Z,1011.90
2022-09-02T03:11:10.065Z,1011.90
2022-09-02T03:12:10.063Z,1011.89
2022-09-02T03:13:10.060Z,1011.90
2022-09-02T03:14:10.071Z,1011.94
2022-09-02T03:15:10.060Z,1011.91
2022-09-02T03:16:10.141Z,1011.90
2022-09-02T03:17:10.066Z,1011.92
2022-09-02T03:18:10.061Z,1011.92
2022-09-02T03:19:10.059Z,1011.92
2022-09-02T03:20:10.060Z,1011.94
2022-09-02T03:21:10.055Z,1011.92
2022-09-02T03:22:10.058Z,1011.91
2022-09-02T03:23:10.054Z,1011.92
2022-09-02T03:24:10.058Z,1011.92
2022-09-02T03:25:10.056Z,1011.93
2022-09-02T03:26:10.053Z,1011.91
2022-09-02T03:27:10.054Z,1011.94
2022-09-02T03:28:10.055Z,1011.87
2022-09-02T03:29:10.051Z,1011.90
2022-09-02T03:30:10.057Z,1011.89
2022-09-02T03:31:10.126Z,1011.90
2022-09-02T03:32:10.055Z,1011.89
2022-09-02T03:33:10.051Z,1011.91
2022-09-02T03:34:10.053Z,1011.89
2022-09-02T03:35:10.049Z,1011.91
2022-09-02T03:36:10.048Z,1011.90
2022-09-02T03:37:10.049Z,1011.88
2022-09-02T03:38:10.050Z,1011.91
2022-09-02T03:39:10.272Z,1011.92
2022-09-02T03:40:10.154Z,1011.89
2022-09-02T03:41:10.045Z,1011.88
2022-09-02T03:42:11.225Z,1011.89
2022-09-02T03:43:10.045Z,1011.85
2022-09-02T03:44:10.044Z,1011.85
2022-09-02T03:45:10.043Z,1011.88
2022-09-02T03:46:10.167Z,1011.90
2022-09-02T03:47:10.040Z,1011.87
2022-09-02T03:48:10.039Z,1011.87
2022-09-02T03:49:10.045Z,1011.89
2022-09-02T03:50:10.390Z,1011.84
2022-09-02T03:51:10.042Z,1011.82
2022-09-02T03:52:10.040Z,1011.83
2022-09-02T03:53:10.035Z,1011.82
2022-09-02T03:54:10.038Z,1011.84
2022-09-02T03:55:10.037Z,1011.84
2022-09-02T03:56:10.035Z,1011.80
2022-09-02T03:57:10.033Z,1011.79
2022-09-02T03:58:10.033Z,1011.78
2022-09-02T03:59:10.030Z,1011.81
2022-09-02T04:00:10.033Z,1011.78
2022-09-02T04:01:10.035Z,1011.79
2022-09-02T04:02:10.146Z,1011.80
2022-09-02T04:03:10.080Z,1011.82
2022-09-02T04:04:10.031Z,1011.83
2022-09-02T04:05:13.674Z,1011.76
2022-09-02T04:06:10.039Z,1011.84
2022-09-02T04:07:10.026Z,1011.80
2022-09-02T04:08:10.031Z,1011.81
2022-09-02T04:09:10.028Z,1011.80
2022-09-02T04:10:10.024Z,1011.83
2022-09-02T04:11:10.025Z,1011.82
2022-09-02T04:12:10.025Z,1011.77
2022-09-02T04:13:10.023Z,1011.80
2022-09-02T04:14:10.021Z,1011.82
2022-09-02T04:15:10.021Z,1011.79
2022-09-02T04:16:10.491Z,1011.78
2022-09-02T04:17:10.020Z,1011.77
2022-09-02T04:18:10.020Z,1011.78
2022-09-02T04:19:10.023Z,1011.80
2022-09-02T04:20:10.014Z,1011.80
2022-09-02T04:21:10.013Z,1011.78
2022-09-02T04:22:10.016Z,1011.80
2022-09-02T04:23:10.012Z,1011.80
2022-09-02T04:24:10.016Z,1011.77
2022-09-02T04:25:10.008Z,1011.76
2022-09-02T04:26:10.012Z,1011.76
2022-09-02T04:27:10.010Z,1011.78
2022-09-02T04:28:10.010Z,1011.71
2022-09-02T04:29:10.009Z,1011.70
2022-09-02T04:30:10.005Z,1011.69
2022-09-02T04:31:10.095Z,1011.71
2022-09-02T04:32:10.006Z,1011.70
2022-09-02T04:33:10.000Z,1011.72
2022-09-02T04:34:10.002Z,1011.75
2022-09-02T04:35:10.009Z,1011.72
2022-09-02T04:36:10.002Z,1011.71
2022-09-02T04:37:10.000Z,1011.71
2022-09-02T04:38:10.002Z,1011.72
2022-09-02T04:39:09.995Z,1011.69
2022-09-02T04:40:10.065Z,1011.72
2022-09-02T04:41:09.992Z,1011.73
2022-09-02T04:42:09.990Z,1011.72
2022-09-02T04:43:09.997Z,1011.70
2022-09-02T04:44:09.991Z,1011.75
2022-09-02T04:45:09.993Z,1011.71
2022-09-02T04:46:10.032Z,1011.73
2022-09-02T04:47:09.985Z,1011.70
2022-09-02T04:48:09.992Z,1011.75
2022-09-02T04:49:09.999Z,1011.76
2022-09-02T04:50:09.984Z,1011.72
2022-09-02T04:51:09.996Z,1011.74
2022-09-02T04:52:09.980Z,1011.71
2022-09-02T04:53:09.976Z,1011.69
2022-09-02T04:54:09.979Z,1011.72
2022-09-02T04:55:09.976Z,1011.72
2022-09-02T04:56:09.982Z,1011.70
2022-09-02T04:57:10.004Z,1011.74
2022-09-02T04:58:09.988Z,1011.72
2022-09-02T04:59:09.972Z,1011.72
2022-09-02T05:00:09.987Z,1011.69
2022-09-02T05:01:10.011Z,1011.69
2022-09-02T05:02:10.180Z,1011.72
2022-09-02T05:03:09.966Z,1011.72
2022-09-02T05:04:10.130Z,1011.72
2022-09-02T05:05:09.964Z,1011.69
2022-09-02T05:06:09.959Z,1011.72
2022-09-02T05:07:09.960Z,1011.68
2022-09-02T05:08:09.956Z,1011.72
2022-09-02T05:09:09.954Z,1011.70
2022-09-02T05:10:09.956Z,1011.74
2022-09-02T05:11:09.953Z,1011.75
2022-09-02T05:12:09.958Z,1011.71
2022-09-02T05:13:09.950Z,1011.77
2022-09-02T05:14:09.948Z,1011.72
2022-09-02T05:15:09.944Z,1011.73
2022-09-02T05:16:10.027Z,1011.73
2022-09-02T05:17:09.942Z,1011.72
2022-09-02T05:18:09.954Z,1011.74
2022-09-02T05:19:09.942Z,1011.70
2022-09-02T05:20:09.943Z,1011.71
2022-09-02T05:21:09.937Z,1011.72
2022-09-02T05:22:09.937Z,1011.71
2022-09-02T05:23:09.935Z,1011.73
2022-09-02T05:24:09.937Z,1011.73
2022-09-02T05:25:09.932Z,1011.72
2022-09-02T05:26:09.931Z,1011.71
2022-09-02T05:27:09.938Z,1011.71
2022-09-02T05:28:09.929Z,1011.74
2022-09-02T05:29:09.929Z,1011.72
2022-09-02T05:30:09.932Z,1011.69
2022-09-02T05:31:10.103Z,1011.70
2022-09-02T05:32:09.923Z,1011.71
2022-09-02T05:33:09.949Z,1011.66
2022-09-02T05:34:09.930Z,1011.68
2022-09-02T05:35:09.921Z,1011.68
2022-09-02T05:36:09.917Z,1011.72
2022-09-02T05:37:09.915Z,1011.70
2022-09-02T05:38:09.915Z,1011.68
2022-09-02T05:39:09.910Z,1011.69
2022-09-02T05:40:10.006Z,1011.64
2022-09-02T05:41:09.908Z,1011.65
2022-09-02T05:42:09.906Z,1011.67
2022-09-02T05:43:09.905Z,1011.66
2022-09-02T05:44:09.904Z,1011.70
2022-09-02T05:45:09.902Z,1011.69
2022-09-02T05:46:09.970Z,1011.69
2022-09-02T05:47:09.902Z,1011.70
2022-09-02T05:48:09.899Z,1011.67
2022-09-02T05:49:09.897Z,1011.68
2022-09-02T05:50:09.900Z,1011.68
2022-09-02T05:51:09.893Z,1011.67
2022-09-02T05:52:09.893Z,1011.70
2022-09-02T05:53:14.228Z,1011.69
2022-09-02T05:54:09.891Z,1011.70
2022-09-02T05:55:09.888Z,1011.71
2022-09-02T05:56:09.888Z,1011.74
2022-09-02T05:57:09.889Z,1011.71
2022-09-02T05:58:09.954Z,1011.71
2022-09-02T05:59:09.884Z,1011.71
2022-09-02T06:00:09.887Z,1011.72
2022-09-02T06:01:09.881Z,1011.72
2022-09-02T06:02:10.001Z,1011.72
2022-09-02T06:03:09.926Z,1011.76
2022-09-02T06:04:09.875Z,1011.72
2022-09-02T06:05:09.874Z,1011.71
2022-09-02T06:06:09.889Z,1011.73
2022-09-02T06:07:09.926Z,1011.72
2022-09-02T06:08:09.879Z,1011.71
2022-09-02T06:09:09.868Z,1011.72
2022-09-02T06:10:09.872Z,1011.74
2022-09-02T06:11:09.867Z,1011.72
2022-09-02T06:12:09.868Z,1011.73
2022-09-02T06:13:09.863Z,1011.69
2022-09-02T06:14:09.865Z,1011.72
2022-09-02T06:15:09.863Z,1011.73
2022-09-02T06:16:09.923Z,1011.72
2022-09-02T06:17:09.861Z,1011.71
2022-09-02T06:18:09.857Z,1011.70
2022-09-02T06:19:09.856Z,1011.68
2022-09-02T06:20:10.371Z,1011.68
2022-09-02T06:21:09.855Z,1011.69
2022-09-02T06:22:09.854Z,1011.69
2022-09-02T06:23:09.852Z,1011.71
2022-09-02T06:24:09.851Z,1011.68
2022-09-02T06:25:09.849Z,1011.71
2022-09-02T06:26:09.853Z,1011.70
2022-09-02T06:27:09.848Z,1011.66
2022-09-02T06:28:09.852Z,1011.67
2022-09-02T06:29:09.846Z,1011.67
2022-09-02T06:30:09.845Z,1011.71
2022-09-02T06:31:09.950Z,1011.68
2022-09-02T06:32:09.850Z,1011.74
2022-09-02T06:33:09.841Z,1011.71
2022-09-02T06:34:09.840Z,1011.74
2022-09-02T06:35:09.861Z,1011.67
2022-09-02T06:36:09.844Z,1011.71
2022-09-02T06:37:09.840Z,1011.73
2022-09-02T06:38:09.835Z,1011.74
2022-09-02T06:39:09.840Z,1011.73
2022-09-02T06:40:09.873Z,1011.72
2022-09-02T06:41:09.832Z,1011.71
2022-09-02T06:42:09.829Z,1011.72
2022-09-02T06:43:09.831Z,1011.72
2022-09-02T06:44:09.836Z,1011.76
2022-09-02T06:45:09.825Z,1011.75
2022-09-02T06:46:09.854Z,1011.76
2022-09-02T06:47:09.824Z,1011.76
2022-09-02T06:48:09.823Z,1011.79
2022-09-02T06:49:09.822Z,1011.75
2022-09-02T06:50:09.820Z,1011.73
2022-09-02T06:51:09.825Z,1011.68
2022-09-02T06:52:09.819Z,1011.70
2022-09-02T06:53:09.820Z,1011.68
2022-09-02T06:54:09.819Z,1011.69
2022-09-02T06:55:09.819Z,1011.71
2022-09-02T06:56:09.816Z,1011.71
2022-09-02T06:57:09.817Z,1011.71
2022-09-02T06:58:09.815Z,1011.70
2022-09-02T06:59:09.814Z,1011.68
2022-09-02T07:00:09.812Z,1011.73
2022-09-02T07:01:10.067Z,1011.70
2022-09-02T07:02:10.026Z,1011.76
2022-09-02T07:03:09.812Z,1011.73
2022-09-02T07:04:09.809Z,1011.72
2022-09-02T07:05:09.809Z,1011.69
2022-09-02T07:06:09.807Z,1011.71
2022-09-02T07:07:09.812Z,1011.71
2022-09-02T07:08:09.808Z,1011.72
2022-09-02T07:09:09.803Z,1011.68
2022-09-02T07:10:09.803Z,1011.71
2022-09-02T07:11:09.805Z,1011.70
2022-09-02T07:12:09.801Z,1011.69
2022-09-02T07:13:09.804Z,1011.67
2022-09-02T07:14:09.800Z,1011.69
2022-09-02T07:15:09.804Z,1011.68
2022-09-02T07:16:09.857Z,1011.69
2022-09-02T07:17:09.869Z,1011.70
2022-09-02T07:18:09.795Z,1011.69
2022-09-02T07:19:14.073Z,1011.65
2022-09-02T07:20:09.799Z,1011.64
2022-09-02T07:21:09.793Z,1011.64
2022-09-02T07:22:09.793Z,1011.60
2022-09-02T07:23:09.791Z,1011.58
2022-09-02T07:24:09.790Z,1011.65
2022-09-02T07:25:09.798Z,1011.59
2022-09-02T07:26:09.789Z,1011.60
2022-09-02T07:27:09.792Z,1011.59
2022-09-02T07:28:09.789Z,1011.58
2022-09-02T07:29:09.788Z,1011.58
2022-09-02T07:30:09.788Z,1011.60
2022-09-02T07:31:09.836Z,1011.60
2022-09-02T07:32:09.785Z,1011.56
2022-09-02T07:33:09.785Z,1011.60
2022-09-02T07:34:09.783Z,1011.63
2022-09-02T07:35:09.784Z,1011.53
2022-09-02T07:36:11.107Z,1011.57
2022-09-02T07:37:11.031Z,1011.56
2022-09-02T07:38:09.780Z,1011.55
2022-09-02T07:39:09.783Z,1011.55
2022-09-02T07:40:09.832Z,1011.56
2022-09-02T07:41:09.781Z,1011.53
2022-09-02T07:42:09.778Z,1011.53
2022-09-02T07:43:09.781Z,1011.49
2022-09-02T07:44:09.780Z,1011.43
2022-09-02T07:45:09.776Z,1011.52
2022-09-02T07:46:09.800Z,1011.51
2022-09-02T07:47:09.777Z,1011.50
2022-09-02T07:48:09.777Z,1011.54
2022-09-02T07:49:09.775Z,1011.52
2022-09-02T07:50:20.169Z,1011.58
2022-09-02T07:51:09.777Z,1011.52
2022-09-02T07:52:09.773Z,1011.50
2022-09-02T07:53:09.772Z,1011.49
2022-09-02T07:54:09.772Z,1011.51
2022-09-02T07:55:14.536Z,1011.51
2022-09-02T07:56:09.775Z,1011.55
2022-09-02T07:57:09.777Z,1011.52
2022-09-02T07:58:09.776Z,1011.49
2022-09-02T07:59:09.775Z,1011.47
2022-09-02T08:00:09.770Z,1011.44
2022-09-02T08:01:09.968Z,1011.48
2022-09-02T08:02:09.833Z,1011.53
2022-09-02T08:03:09.806Z,1011.53
2022-09-02T08:04:09.772Z,1011.50
2022-09-02T08:05:09.768Z,1011.47
2022-09-02T08:06:09.765Z,1011.47
2022-09-02T08:07:09.770Z,1011.50
2022-09-02T08:08:09.766Z,1011.51
2022-09-02T08:09:09.767Z,1011.57
2022-09-02T08:10:09.766Z,1011.51
2022-09-02T08:11:09.768Z,1011.48
2022-09-02T08:12:09.767Z,1011.51
2022-09-02T08:13:09.784Z,1011.52
2022-09-02T08:14:09.766Z,1011.50
2022-09-02T08:15:09.769Z,1011.47
2022-09-02T08:16:09.839Z,1011.43
2022-09-02T08:17:09.768Z,1011.56
2022-09-02T08:18:12.515Z,1011.58
2022-09-02T08:19:09.773Z,1011.67
2022-09-02T08:20:12.423Z,1011.68
2022-09-02T08:21:09.767Z,1011.46
2022-09-02T08:22:09.776Z,1011.42
2022-09-02T08:23:18.527Z,1011.55
2022-09-02T08:24:09.935Z,1011.52
2022-09-02T08:25:09.775Z,1011.56
2022-09-02T08:26:09.783Z,1011.51
2022-09-02T08:27:09.773Z,1011.50
2022-09-02T08:28:09.780Z,1011.48
2022-09-02T08:29:09.781Z,1011.54
2022-09-02T08:30:09.774Z,1011.47
2022-09-02T08:31:09.780Z,1011.48
2022-09-02T08:32:09.861Z,1011.45
2022-09-02T08:33:09.778Z,1011.47
2022-09-02T08:34:09.775Z,1011.43
2022-09-02T08:35:09.775Z,1011.46
2022-09-02T08:36:09.782Z,1011.43
2022-09-02T08:37:09.790Z,1011.39
2022-09-02T08:38:09.779Z,1011.39
2022-09-02T08:39:09.780Z,1011.38
2022-09-02T08:40:09.819Z,1011.38
2022-09-02T08:41:09.783Z,1011.39
2022-09-02T08:42:09.786Z,1011.38
2022-09-02T08:43:09.785Z,1011.38
2022-09-02T08:44:09.780Z,1011.36
2022-09-02T08:45:09.779Z,1011.36
2022-09-02T08:46:09.869Z,1011.33
2022-09-02T08:47:09.784Z,1011.35
2022-09-02T08:48:09.783Z,1011.34
2022-09-02T08:49:09.789Z,1011.35
2022-09-02T08:50:09.783Z,1011.33
2022-09-02T08:51:09.785Z,1011.31
2022-09-02T08:52:09.786Z,1011.27
2022-09-02T08:53:09.788Z,1011.26
2022-09-02T08:54:09.784Z,1011.26
2022-09-02T08:55:09.788Z,1011.25
2022-09-02T08:56:09.785Z,1011.25
2022-09-02T08:57:09.786Z,1011.23
2022-09-02T08:58:09.793Z,1011.21
2022-09-02T08:59:09.788Z,1011.21
2022-09-02T09:00:09.789Z,1011.21
2022-09-02T09:01:09.897Z,1011.20
2022-09-02T09:02:09.829Z,1011.23
2022-09-02T09:03:09.791Z,1011.24
2022-09-02T09:04:09.863Z,1011.19
2022-09-02T09:05:09.794Z,1011.23
2022-09-02T09:06:09.793Z,1011.29
2022-09-02T09:07:09.798Z,1011.24
2022-09-02T09:08:12.494Z,1011.21
2022-09-02T09:09:09.788Z,1011.23
2022-09-02T09:10:09.793Z,1011.22
2022-09-02T09:11:09.793Z,1011.19
2022-09-02T09:12:09.791Z,1011.17
2022-09-02T09:13:09.796Z,1011.14
2022-09-02T09:14:09.790Z,1011.14
2022-09-02T09:15:09.795Z,1011.14
2022-09-02T09:16:09.827Z,1011.13
2022-09-02T09:17:09.791Z,1011.11
2022-09-02T09:18:09.796Z,1011.13
2022-09-02T09:19:09.795Z,1011.07
2022-09-02T09:20:09.793Z,1011.09
2022-09-02T09:21:10.995Z,1011.05
2022-09-02T09:22:09.793Z,1011.04
2022-09-02T09:23:09.800Z,1011.04
2022-09-02T09:24:09.796Z,1011.00
2022-09-02T09:25:09.798Z,1011.00
2022-09-02T09:26:09.794Z,1011.00
2022-09-02T09:27:09.798Z,1011.03
2022-09-02T09:28:09.798Z,1010.99
2022-09-02T09:29:09.795Z,1010.99
2022-09-02T09:30:14.910Z,1010.97
2022-09-02T09:31:09.808Z,1010.93
2022-09-02T09:32:09.798Z,1010.90
2022-09-02T09:33:09.801Z,1010.96
2022-09-02T09:34:09.808Z,1010.91
2022-09-02T09:35:09.806Z,1010.89
2022-09-02T09:36:09.804Z,1010.86
2022-09-02T09:37:09.802Z,1010.86
2022-09-02T09:38:09.799Z,1010.83
2022-09-02T09:39:09.801Z,1010.80
2022-09-02T09:40:09.859Z,1010.79
2022-09-02T09:41:09.800Z,1010.79
2022-09-02T09:42:09.803Z,1010.76
2022-09-02T09:43:14.973Z,1010.77
2022-09-02T09:44:09.804Z,1010.75
2022-09-02T09:45:09.804Z,1010.72
2022-09-02T09:46:09.857Z,1010.74
2022-09-02T09:47:11.787Z,1010.70
2022-09-02T09:48:09.809Z,1010.72
2022-09-02T09:49:10.689Z,1010.73
2022-09-02T09:50:09.806Z,1010.73
2022-09-02T09:51:09.810Z,1010.73
2022-09-02T09:52:09.809Z,1010.73
2022-09-02T09:53:09.807Z,1010.72
2022-09-02T09:54:09.816Z,1010.71
2022-09-02T09:55:12.230Z,1010.72
2022-09-02T09:56:09.810Z,1010.71
2022-09-02T09:57:09.812Z,1010.67
2022-09-02T09:58:09.812Z,1010.75
2022-09-02T09:59:09.813Z,1010.68
2022-09-02T10:00:09.810Z,1010.74
2022-09-02T10:01:10.110Z,1010.71
2022-09-02T10:02:09.858Z,1010.64
2022-09-02T10:03:09.815Z,1010.67
2022-09-02T10:04:32.383Z,1010.67
2022-09-02T10:05:09.813Z,1010.65
2022-09-02T10:06:09.814Z,1010.62
2022-09-02T10:07:09.817Z,1010.64
2022-09-02T10:08:15.039Z,1010.58
2022-09-02T10:09:09.816Z,1010.64
2022-09-02T10:10:09.818Z,1010.66
2022-09-02T10:11:09.818Z,1010.60
2022-09-02T10:12:09.815Z,1010.62
2022-09-02T10:13:09.857Z,1010.64
2022-09-02T10:14:09.816Z,1010.59
2022-09-02T10:15:09.819Z,1010.60
2022-09-02T10:16:09.848Z,1010.58
2022-09-02T10:17:09.821Z,1010.56
2022-09-02T10:18:09.819Z,1010.56
2022-09-02T10:19:09.821Z,1010.55
2022-09-02T10:20:09.821Z,1010.57
2022-09-02T10:21:15.249Z,1010.59
2022-09-02T10:22:09.824Z,1010.60
2022-09-02T10:23:09.827Z,1010.54
2022-09-02T10:24:09.824Z,1010.54
2022-09-02T10:25:09.830Z,1010.55
2022-09-02T10:26:09.826Z,1010.55
2022-09-02T10:27:09.827Z,1010.56
2022-09-02T10:28:09.825Z,1010.55
2022-09-02T10:29:09.831Z,1010.54
2022-09-02T10:30:09.825Z,1010.51
2022-09-02T10:31:09.887Z,1010.51
2022-09-02T10:32:09.828Z,1010.53
2022-09-02T10:33:09.831Z,1010.45
2022-09-02T10:34:09.837Z,1010.44
2022-09-02T10:35:09.831Z,1010.43
2022-09-02T10:36:12.823Z,1010.40
2022-09-02T10:37:09.833Z,1010.43
2022-09-02T10:38:09.833Z,1010.46
2022-09-02T10:39:09.833Z,1010.45
2022-09-02T10:40:09.921Z,1010.48
2022-09-02T10:41:09.840Z,1010.45
2022-09-02T10:42:09.844Z,1010.48
2022-09-02T10:43:09.837Z,1010.48
2022-09-02T10:44:09.842Z,1010.44
2022-09-02T10:45:09.840Z,1010.42
2022-09-02T10:46:09.838Z,1010.43
2022-09-02T10:47:09.840Z,1010.39
2022-09-02T10:48:09.843Z,1010.46
2022-09-02T10:49:09.843Z,1010.41
2022-09-02T10:50:09.842Z,1010.41
2022-09-02T10:51:09.842Z,1010.43
2022-09-02T10:52:09.883Z,1010.43
2022-09-02T10:53:09.880Z,1010.36
2022-09-02T10:54:09.861Z,1010.45
2022-09-02T10:55:09.848Z,1010.42
2022-09-02T10:56:09.848Z,1010.35
2022-09-02T10:57:09.853Z,1010.43
2022-09-02T10:58:09.853Z,1010.45
2022-09-02T10:59:09.851Z,1010.43
2022-09-02T11:00:09.853Z,1010.35
2022-09-02T11:01:09.947Z,1010.36
2022-09-02T11:02:09.854Z,1010.30
2022-09-02T11:03:09.889Z,1010.36
2022-09-02T11:04:09.856Z,1010.27
2022-09-02T11:05:09.852Z,1010.29
2022-09-02T11:06:09.859Z,1010.29
2022-09-02T11:07:09.855Z,1010.32
2022-09-02T11:08:09.859Z,1010.31
2022-09-02T11:09:09.859Z,1010.33
2022-09-02T11:10:09.859Z,1010.37
2022-09-02T11:11:09.859Z,1010.30
2022-09-02T11:12:09.864Z,1010.27
2022-09-02T11:13:09.859Z,1010.24
2022-09-02T11:14:09.863Z,1010.24
2022-09-02T11:15:09.864Z,1010.18
2022-09-02T11:16:09.942Z,1010.19
2022-09-02T11:17:13.362Z,1010.18
2022-09-02T11:18:09.930Z,1010.20
2022-09-02T11:19:09.864Z,1010.16
2022-09-02T11:20:09.870Z,1010.19
2022-09-02T11:21:09.867Z,1010.15
2022-09-02T11:22:09.867Z,1010.15
2022-09-02T11:23:09.870Z,1010.15
2022-09-02T11:24:09.874Z,1010.12
2022-09-02T11:25:09.870Z,1010.14
2022-09-02T11:26:09.870Z,1010.12
2022-09-02T11:27:26.013Z,1010.11
2022-09-02T11:28:09.875Z,1010.12
2022-09-02T11:29:09.874Z,1010.10
2022-09-02T11:30:09.878Z,1010.12
2022-09-02T11:31:09.875Z,1010.05
2022-09-02T11:32:09.878Z,1010.13
2022-09-02T11:33:09.876Z,1010.08
2022-09-02T11:34:09.881Z,1010.10
2022-09-02T11:35:09.879Z,1010.05
2022-09-02T11:36:09.889Z,1010.09
2022-09-02T11:37:10.838Z,1010.07
2022-09-02T11:38:09.887Z,1010.10
2022-09-02T11:39:09.881Z,1010.10
2022-09-02T11:40:33.114Z,1010.07
2022-09-02T11:42:09.959Z,1010.04
2022-09-02T11:43:09.885Z,1010.06
2022-09-02T11:44:09.890Z,1010.05
2022-09-02T11:45:09.915Z,1010.04
2022-09-02T11:46:09.927Z,1010.02
2022-09-02T11:47:09.888Z,1010.03
2022-09-02T11:48:09.895Z,1010.03
2022-09-02T11:49:09.889Z,1010.01
2022-09-02T11:50:09.898Z,1009.99
2022-09-02T11:51:09.948Z,1009.98
2022-09-02T11:52:09.984Z,1009.98
2022-09-02T11:53:09.893Z,1009.96
2022-09-02T11:54:09.898Z,1009.97
2022-09-02T11:55:09.898Z,1009.94
2022-09-02T11:56:09.936Z,1009.92
2022-09-02T11:57:09.922Z,1009.91
2022-09-02T11:58:09.906Z,1009.91
2022-09-02T11:59:09.901Z,1009.88
2022-09-02T12:00:09.905Z,1009.89
2022-09-02T12:01:13.971Z,1009.89
2022-09-02T12:02:09.912Z,1009.83
2022-09-02T12:03:28.536Z,1009.88
2022-09-02T12:05:10.351Z,1009.85
2022-09-02T12:06:10.101Z,1009.86
2022-09-02T12:07:10.668Z,1009.84
2022-09-02T12:08:09.909Z,1009.84